sensor_id;sensor_type;location;lat;lon;timestamp;P1;durP1;ratioP1;P2;durP2;ratioP2
23362;SDS011;11853;48.080;11.960;2023-06-22T00:01:48;8.38;;;5.13;;
23362;SDS011;11853;48.080;11.960;2023-06-22T00:04:13;8.15;;;5.07;;
23362;SDS011;11853;48.080;11.960;2023-06-22T00:06:39;8.20;;;5.35;;
23362;SDS011;11853;48.080;11.960;2023-06-22T00:09:04;10.07;;;5.10;;
23362;SDS011;11853;48.080;11.960;2023-06-22T00:11:32;6.05;;;5.28;;
23362;SDS011;11853;48.080;11.960;2023-06-22T00:13:58;8.55;;;5.50;;
23362;SDS011;11853;48.080;11.960;2023-06-22T00:16:27;7.40;;;4.75;;
23362;SDS011;11853;48.080;11.960;2023-06-22T00:18:52;8.10;;;4.97;;
23362;SDS011;11853;48.080;11.960;2023-06-22T00:21:18;8.70;;;5.05;;
23362;SDS011;11853;48.080;11.960;2023-06-22T00:23:45;10.65;;;5.22;;
23362;SDS011;11853;48.080;11.960;2023-06-22T00:26:12;8.88;;;4.90;;
23362;SDS011;11853;48.080;11.960;2023-06-22T00:28:38;8.23;;;6.15;;
23362;SDS011;11853;48.080;11.960;2023-06-22T00:31:04;10.35;;;5.60;;
23362;SDS011;11853;48.080;11.960;2023-06-22T00:33:30;9.65;;;5.50;;
23362;SDS011;11853;48.080;11.960;2023-06-22T00:35:56;9.27;;;5.38;;
23362;SDS011;11853;48.080;11.960;2023-06-22T00:38:22;8.93;;;5.28;;
23362;SDS011;11853;48.080;11.960;2023-06-22T00:40:47;9.52;;;5.55;;
23362;SDS011;11853;48.080;11.960;2023-06-22T00:43:13;8.93;;;5.28;;
23362;SDS011;11853;48.080;11.960;2023-06-22T00:45:38;8.65;;;5.22;;
23362;SDS011;11853;48.080;11.960;2023-06-22T00:48:04;9.05;;;5.47;;
23362;SDS011;11853;48.080;11.960;2023-06-22T00:50:31;7.40;;;5.53;;
23362;SDS011;11853;48.080;11.960;2023-06-22T00:52:59;10.90;;;5.85;;
23362;SDS011;11853;48.080;11.960;2023-06-22T00:55:29;8.98;;;5.45;;
23362;SDS011;11853;48.080;11.960;2023-06-22T00:57:55;9.40;;;6.05;;
23362;SDS011;11853;48.080;11.960;2023-06-22T01:00:22;7.78;;;5.30;;
23362;SDS011;11853;48.080;11.960;2023-06-22T01:02:50;10.80;;;5.97;;
23362;SDS011;11853;48.080;11.960;2023-06-22T01:05:18;8.95;;;5.68;;
23362;SDS011;11853;48.080;11.960;2023-06-22T01:13:01;7.93;;;5.75;;
23362;SDS011;11853;48.080;11.960;2023-06-22T01:18:43;9.80;;;6.15;;
23362;SDS011;11853;48.080;11.960;2023-06-22T01:21:14;8.18;;;5.72;;
23362;SDS011;11853;48.080;11.960;2023-06-22T01:24:01;8.70;;;6.10;;
23362;SDS011;11853;48.080;11.960;2023-06-22T01:29:40;10.00;;;6.15;;
23362;SDS011;11853;48.080;11.960;2023-06-22T01:32:08;9.85;;;6.05;;
23362;SDS011;11853;48.080;11.960;2023-06-22T01:34:36;11.38;;;6.65;;
23362;SDS011;11853;48.080;11.960;2023-06-22T01:37:05;9.77;;;6.10;;
23362;SDS011;11853;48.080;11.960;2023-06-22T01:39:32;11.73;;;6.65;;
23362;SDS011;11853;48.080;11.960;2023-06-22T01:41:59;10.10;;;6.90;;
23362;SDS011;11853;48.080;11.960;2023-06-22T01:44:25;9.88;;;7.20;;
23362;SDS011;11853;48.080;11.960;2023-06-22T01:46:51;7.45;;;6.63;;
23362;SDS011;11853;48.080;11.960;2023-06-22T01:49:17;13.30;;;7.30;;
23362;SDS011;11853;48.080;11.960;2023-06-22T01:51:43;10.63;;;7.70;;
23362;SDS011;11853;48.080;11.960;2023-06-22T01:54:09;12.73;;;7.10;;
23362;SDS011;11853;48.080;11.960;2023-06-22T01:56:34;9.80;;;7.10;;
23362;SDS011;11853;48.080;11.960;2023-06-22T01:59:04;10.90;;;6.85;;
23362;SDS011;11853;48.080;11.960;2023-06-22T02:01:50;15.82;;;7.63;;
23362;SDS011;11853;48.080;11.960;2023-06-22T02:04:27;15.95;;;8.50;;
23362;SDS011;11853;48.080;11.960;2023-06-22T02:07:18;11.60;;;7.35;;
23362;SDS011;11853;48.080;11.960;2023-06-22T02:09:46;13.52;;;7.93;;
23362;SDS011;11853;48.080;11.960;2023-06-22T02:12:17;11.77;;;7.13;;
23362;SDS011;11853;48.080;11.960;2023-06-22T02:14:46;13.57;;;7.70;;
23362;SDS011;11853;48.080;11.960;2023-06-22T02:17:13;13.95;;;8.57;;
23362;SDS011;11853;48.080;11.960;2023-06-22T02:19:41;11.07;;;8.45;;
23362;SDS011;11853;48.080;11.960;2023-06-22T02:22:07;13.68;;;8.85;;
23362;SDS011;11853;48.080;11.960;2023-06-22T02:24:33;11.00;;;8.20;;
23362;SDS011;11853;48.080;11.960;2023-06-22T02:26:59;12.18;;;8.50;;
23362;SDS011;11853;48.080;11.960;2023-06-22T02:29:27;12.05;;;8.57;;
23362;SDS011;11853;48.080;11.960;2023-06-22T02:31:53;12.80;;;8.10;;
23362;SDS011;11853;48.080;11.960;2023-06-22T02:34:20;13.80;;;8.18;;
23362;SDS011;11853;48.080;11.960;2023-06-22T02:36:47;9.90;;;7.57;;
23362;SDS011;11853;48.080;11.960;2023-06-22T02:39:20;12.38;;;8.35;;
23362;SDS011;11853;48.080;11.960;2023-06-22T02:41:51;11.77;;;8.90;;
23362;SDS011;11853;48.080;11.960;2023-06-22T02:44:18;12.35;;;9.23;;
23362;SDS011;11853;48.080;11.960;2023-06-22T02:46:44;14.68;;;8.55;;
23362;SDS011;11853;48.080;11.960;2023-06-22T02:49:10;14.05;;;8.98;;
23362;SDS011;11853;48.080;11.960;2023-06-22T02:51:37;13.25;;;8.57;;
23362;SDS011;11853;48.080;11.960;2023-06-22T02:54:05;13.93;;;9.32;;
23362;SDS011;11853;48.080;11.960;2023-06-22T02:56:31;14.23;;;9.07;;
23362;SDS011;11853;48.080;11.960;2023-06-22T02:58:56;13.77;;;9.70;;
23362;SDS011;11853;48.080;11.960;2023-06-22T03:01:29;16.98;;;9.73;;
23362;SDS011;11853;48.080;11.960;2023-06-22T03:03:56;15.93;;;9.30;;
23362;SDS011;11853;48.080;11.960;2023-06-22T03:06:22;13.73;;;8.95;;
23362;SDS011;11853;48.080;11.960;2023-06-22T03:08:48;12.18;;;8.82;;
23362;SDS011;11853;48.080;11.960;2023-06-22T03:11:14;15.98;;;10.10;;
23362;SDS011;11853;48.080;11.960;2023-06-22T03:13:40;11.18;;;8.85;;
23362;SDS011;11853;48.080;11.960;2023-06-22T03:16:06;13.40;;;9.25;;
23362;SDS011;11853;48.080;11.960;2023-06-22T03:18:31;13.25;;;8.52;;
23362;SDS011;11853;48.080;11.960;2023-06-22T03:20:57;13.38;;;8.68;;
23362;SDS011;11853;48.080;11.960;2023-06-22T03:23:22;14.30;;;8.88;;
23362;SDS011;11853;48.080;11.960;2023-06-22T03:25:48;12.35;;;8.65;;
23362;SDS011;11853;48.080;11.960;2023-06-22T03:28:13;13.57;;;8.35;;
23362;SDS011;11853;48.080;11.960;2023-06-22T03:30:39;12.75;;;8.00;;
23362;SDS011;11853;48.080;11.960;2023-06-22T03:33:04;12.63;;;7.43;;
23362;SDS011;11853;48.080;11.960;2023-06-22T03:35:30;11.60;;;7.20;;
23362;SDS011;11853;48.080;11.960;2023-06-22T03:37:56;10.75;;;7.22;;
23362;SDS011;11853;48.080;11.960;2023-06-22T03:40:21;11.57;;;7.35;;
23362;SDS011;11853;48.080;11.960;2023-06-22T03:42:47;9.90;;;6.85;;
23362;SDS011;11853;48.080;11.960;2023-06-22T03:45:12;12.80;;;6.97;;
23362;SDS011;11853;48.080;11.960;2023-06-22T03:47:38;13.32;;;6.75;;
23362;SDS011;11853;48.080;11.960;2023-06-22T03:50:04;9.25;;;6.85;;
23362;SDS011;11853;48.080;11.960;2023-06-22T03:52:31;11.45;;;6.53;;
23362;SDS011;11853;48.080;11.960;2023-06-22T03:54:59;13.50;;;6.05;;
23362;SDS011;11853;48.080;11.960;2023-06-22T03:57:25;8.68;;;6.40;;
23362;SDS011;11853;48.080;11.960;2023-06-22T03:59:51;11.00;;;6.80;;
23362;SDS011;11853;48.080;11.960;2023-06-22T04:02:17;11.13;;;6.70;;
23362;SDS011;11853;48.080;11.960;2023-06-22T04:04:42;10.40;;;6.75;;
23362;SDS011;11853;48.080;11.960;2023-06-22T04:07:08;11.35;;;6.78;;
23362;SDS011;11853;48.080;11.960;2023-06-22T04:09:33;11.40;;;6.82;;
23362;SDS011;11853;48.080;11.960;2023-06-22T04:11:59;9.73;;;6.82;;
23362;SDS011;11853;48.080;11.960;2023-06-22T04:14:25;10.27;;;6.43;;
23362;SDS011;11853;48.080;11.960;2023-06-22T04:16:51;11.88;;;6.85;;
23362;SDS011;11853;48.080;11.960;2023-06-22T04:19:17;10.95;;;6.53;;
23362;SDS011;11853;48.080;11.960;2023-06-22T04:21:43;14.70;;;7.10;;
23362;SDS011;11853;48.080;11.960;2023-06-22T04:24:10;11.70;;;6.93;;
23362;SDS011;11853;48.080;11.960;2023-06-22T04:26:36;10.57;;;6.38;;
23362;SDS011;11853;48.080;11.960;2023-06-22T04:29:06;9.32;;;6.30;;
23362;SDS011;11853;48.080;11.960;2023-06-22T04:31:33;12.95;;;7.47;;
23362;SDS011;11853;48.080;11.960;2023-06-22T04:34:04;9.30;;;6.32;;
23362;SDS011;11853;48.080;11.960;2023-06-22T04:36:37;11.15;;;6.35;;
23362;SDS011;11853;48.080;11.960;2023-06-22T04:39:05;16.30;;;7.35;;
23362;SDS011;11853;48.080;11.960;2023-06-22T04:41:38;10.95;;;6.78;;
23362;SDS011;11853;48.080;11.960;2023-06-22T04:44:10;12.07;;;6.60;;
23362;SDS011;11853;48.080;11.960;2023-06-22T04:46:37;12.60;;;7.70;;
23362;SDS011;11853;48.080;11.960;2023-06-22T04:49:12;13.20;;;6.75;;
23362;SDS011;11853;48.080;11.960;2023-06-22T04:51:41;12.10;;;7.38;;
23362;SDS011;11853;48.080;11.960;2023-06-22T04:54:08;13.88;;;6.97;;
23362;SDS011;11853;48.080;11.960;2023-06-22T04:56:34;11.80;;;7.07;;
23362;SDS011;11853;48.080;11.960;2023-06-22T04:59:00;13.07;;;7.43;;
23362;SDS011;11853;48.080;11.960;2023-06-22T05:01:26;12.45;;;7.55;;
23362;SDS011;11853;48.080;11.960;2023-06-22T05:03:52;11.00;;;7.13;;
23362;SDS011;11853;48.080;11.960;2023-06-22T05:06:22;15.68;;;8.00;;
23362;SDS011;11853;48.080;11.960;2023-06-22T05:08:51;13.63;;;7.40;;
23362;SDS011;11853;48.080;11.960;2023-06-22T05:11:22;13.35;;;7.72;;
23362;SDS011;11853;48.080;11.960;2023-06-22T05:13:51;13.88;;;7.25;;
23362;SDS011;11853;48.080;11.960;2023-06-22T05:16:17;11.38;;;7.72;;
23362;SDS011;11853;48.080;11.960;2023-06-22T05:18:49;9.85;;;6.72;;
23362;SDS011;11853;48.080;11.960;2023-06-22T05:21:16;12.68;;;8.07;;
23362;SDS011;11853;48.080;11.960;2023-06-22T05:23:42;12.75;;;7.80;;
23362;SDS011;11853;48.080;11.960;2023-06-22T05:26:07;11.73;;;6.88;;
23362;SDS011;11853;48.080;11.960;2023-06-22T05:28:35;11.70;;;6.80;;
23362;SDS011;11853;48.080;11.960;2023-06-22T05:31:00;12.40;;;7.25;;
23362;SDS011;11853;48.080;11.960;2023-06-22T05:33:26;11.98;;;8.05;;
23362;SDS011;11853;48.080;11.960;2023-06-22T05:35:52;12.45;;;6.85;;
23362;SDS011;11853;48.080;11.960;2023-06-22T05:38:17;11.00;;;7.50;;
23362;SDS011;11853;48.080;11.960;2023-06-22T05:40:43;11.07;;;7.20;;
23362;SDS011;11853;48.080;11.960;2023-06-22T05:43:09;10.82;;;6.85;;
23362;SDS011;11853;48.080;11.960;2023-06-22T05:45:34;13.00;;;7.00;;
23362;SDS011;11853;48.080;11.960;2023-06-22T05:48:00;13.07;;;6.97;;
23362;SDS011;11853;48.080;11.960;2023-06-22T05:50:26;9.90;;;6.95;;
23362;SDS011;11853;48.080;11.960;2023-06-22T05:52:52;11.05;;;7.22;;
23362;SDS011;11853;48.080;11.960;2023-06-22T05:55:17;15.57;;;7.57;;
23362;SDS011;11853;48.080;11.960;2023-06-22T05:57:44;10.45;;;7.32;;
23362;SDS011;11853;48.080;11.960;2023-06-22T06:00:10;13.35;;;7.45;;
23362;SDS011;11853;48.080;11.960;2023-06-22T06:02:36;9.40;;;6.57;;
23362;SDS011;11853;48.080;11.960;2023-06-22T06:07:34;12.50;;;7.28;;
23362;SDS011;11853;48.080;11.960;2023-06-22T06:10:03;14.68;;;7.88;;
23362;SDS011;11853;48.080;11.960;2023-06-22T06:12:30;11.50;;;7.43;;
23362;SDS011;11853;48.080;11.960;2023-06-22T06:14:55;11.85;;;7.32;;
23362;SDS011;11853;48.080;11.960;2023-06-22T06:17:21;13.63;;;7.57;;
23362;SDS011;11853;48.080;11.960;2023-06-22T06:19:47;15.75;;;7.20;;
23362;SDS011;11853;48.080;11.960;2023-06-22T06:22:12;10.77;;;7.50;;
23362;SDS011;11853;48.080;11.960;2023-06-22T06:24:38;12.82;;;7.63;;
23362;SDS011;11853;48.080;11.960;2023-06-22T06:27:04;13.90;;;8.20;;
23362;SDS011;11853;48.080;11.960;2023-06-22T06:29:30;11.45;;;6.63;;
23362;SDS011;11853;48.080;11.960;2023-06-22T06:31:56;12.93;;;7.40;;
23362;SDS011;11853;48.080;11.960;2023-06-22T06:34:22;15.43;;;7.78;;
23362;SDS011;11853;48.080;11.960;2023-06-22T06:36:48;11.40;;;6.75;;
23362;SDS011;11853;48.080;11.960;2023-06-22T06:39:13;12.93;;;7.07;;
23362;SDS011;11853;48.080;11.960;2023-06-22T06:41:41;16.00;;;7.50;;
23362;SDS011;11853;48.080;11.960;2023-06-22T06:44:06;14.90;;;7.03;;
23362;SDS011;11853;48.080;11.960;2023-06-22T06:46:32;10.98;;;7.28;;
23362;SDS011;11853;48.080;11.960;2023-06-22T06:48:57;15.82;;;7.78;;
23362;SDS011;11853;48.080;11.960;2023-06-22T06:51:23;12.63;;;6.60;;
23362;SDS011;11853;48.080;11.960;2023-06-22T06:53:49;12.63;;;7.45;;
23362;SDS011;11853;48.080;11.960;2023-06-22T06:56:14;11.50;;;7.55;;
23362;SDS011;11853;48.080;11.960;2023-06-22T06:58:41;11.48;;;7.45;;
23362;SDS011;11853;48.080;11.960;2023-06-22T07:01:07;11.75;;;7.43;;
23362;SDS011;11853;48.080;11.960;2023-06-22T07:03:33;15.25;;;8.07;;
23362;SDS011;11853;48.080;11.960;2023-06-22T07:05:59;15.70;;;8.15;;
23362;SDS011;11853;48.080;11.960;2023-06-22T07:08:24;13.68;;;7.80;;
23362;SDS011;11853;48.080;11.960;2023-06-22T07:10:51;12.48;;;6.60;;
23362;SDS011;11853;48.080;11.960;2023-06-22T07:13:17;13.38;;;7.85;;
23362;SDS011;11853;48.080;11.960;2023-06-22T07:15:43;13.27;;;7.68;;
23362;SDS011;11853;48.080;11.960;2023-06-22T07:18:08;12.75;;;7.50;;
23362;SDS011;11853;48.080;11.960;2023-06-22T07:20:34;12.43;;;7.50;;
23362;SDS011;11853;48.080;11.960;2023-06-22T07:23:00;14.00;;;7.55;;
23362;SDS011;11853;48.080;11.960;2023-06-22T07:25:26;9.77;;;7.70;;
23362;SDS011;11853;48.080;11.960;2023-06-22T07:28:06;14.80;;;9.05;;
23362;SDS011;11853;48.080;11.960;2023-06-22T07:30:33;12.85;;;7.22;;
23362;SDS011;11853;48.080;11.960;2023-06-22T07:32:59;18.02;;;8.60;;
23362;SDS011;11853;48.080;11.960;2023-06-22T07:35:29;12.35;;;7.20;;
23362;SDS011;11853;48.080;11.960;2023-06-22T07:37:55;13.30;;;6.68;;
23362;SDS011;11853;48.080;11.960;2023-06-22T07:40:21;16.77;;;7.50;;
23362;SDS011;11853;48.080;11.960;2023-06-22T07:42:47;17.08;;;8.50;;
23362;SDS011;11853;48.080;11.960;2023-06-22T07:45:17;17.75;;;7.85;;
23362;SDS011;11853;48.080;11.960;2023-06-22T07:47:42;11.55;;;7.55;;
23362;SDS011;11853;48.080;11.960;2023-06-22T07:50:08;17.05;;;8.02;;
23362;SDS011;11853;48.080;11.960;2023-06-22T07:52:34;11.32;;;7.38;;
23362;SDS011;11853;48.080;11.960;2023-06-22T07:55:00;18.98;;;8.30;;
23362;SDS011;11853;48.080;11.960;2023-06-22T07:57:27;14.23;;;7.82;;
23362;SDS011;11853;48.080;11.960;2023-06-22T07:59:58;12.93;;;7.70;;
23362;SDS011;11853;48.080;11.960;2023-06-22T08:02:38;13.65;;;7.53;;
23362;SDS011;11853;48.080;11.960;2023-06-22T08:05:05;15.73;;;7.30;;
23362;SDS011;11853;48.080;11.960;2023-06-22T08:07:33;9.60;;;6.85;;
23362;SDS011;11853;48.080;11.960;2023-06-22T08:10:00;11.60;;;7.57;;
23362;SDS011;11853;48.080;11.960;2023-06-22T08:12:26;15.00;;;7.65;;
23362;SDS011;11853;48.080;11.960;2023-06-22T08:14:52;11.18;;;7.38;;
23362;SDS011;11853;48.080;11.960;2023-06-22T08:17:17;15.02;;;7.88;;
23362;SDS011;11853;48.080;11.960;2023-06-22T08:19:43;14.38;;;7.80;;
23362;SDS011;11853;48.080;11.960;2023-06-22T08:22:08;12.93;;;7.65;;
23362;SDS011;11853;48.080;11.960;2023-06-22T08:24:34;16.65;;;7.28;;
23362;SDS011;11853;48.080;11.960;2023-06-22T08:26:59;13.63;;;7.35;;
23362;SDS011;11853;48.080;11.960;2023-06-22T08:29:25;13.77;;;7.85;;
23362;SDS011;11853;48.080;11.960;2023-06-22T08:31:50;15.40;;;7.18;;
23362;SDS011;11853;48.080;11.960;2023-06-22T08:34:16;10.93;;;7.25;;
23362;SDS011;11853;48.080;11.960;2023-06-22T08:36:43;11.82;;;7.63;;
23362;SDS011;11853;48.080;11.960;2023-06-22T08:39:17;10.23;;;7.28;;
23362;SDS011;11853;48.080;11.960;2023-06-22T08:41:45;11.60;;;8.10;;
23362;SDS011;11853;48.080;11.960;2023-06-22T08:44:11;14.10;;;7.68;;
23362;SDS011;11853;48.080;11.960;2023-06-22T08:46:37;15.18;;;7.40;;
23362;SDS011;11853;48.080;11.960;2023-06-22T08:49:04;12.40;;;7.40;;
23362;SDS011;11853;48.080;11.960;2023-06-22T08:51:29;12.80;;;8.30;;
23362;SDS011;11853;48.080;11.960;2023-06-22T08:53:55;14.85;;;7.90;;
23362;SDS011;11853;48.080;11.960;2023-06-22T08:56:21;12.45;;;7.60;;
23362;SDS011;11853;48.080;11.960;2023-06-22T08:58:47;16.10;;;7.60;;
23362;SDS011;11853;48.080;11.960;2023-06-22T09:01:13;11.63;;;7.35;;
23362;SDS011;11853;48.080;11.960;2023-06-22T09:03:40;13.77;;;7.20;;
23362;SDS011;11853;48.080;11.960;2023-06-22T09:06:06;13.90;;;7.65;;
23362;SDS011;11853;48.080;11.960;2023-06-22T09:08:34;14.13;;;7.18;;
23362;SDS011;11853;48.080;11.960;2023-06-22T09:11:03;16.00;;;7.60;;
23362;SDS011;11853;48.080;11.960;2023-06-22T09:13:29;11.52;;;7.20;;
23362;SDS011;11853;48.080;11.960;2023-06-22T09:15:56;13.73;;;8.07;;
23362;SDS011;11853;48.080;11.960;2023-06-22T09:18:21;14.77;;;7.60;;
23362;SDS011;11853;48.080;11.960;2023-06-22T09:20:47;15.57;;;8.05;;
23362;SDS011;11853;48.080;11.960;2023-06-22T09:23:13;17.80;;;8.05;;
23362;SDS011;11853;48.080;11.960;2023-06-22T09:25:39;14.10;;;7.10;;
23362;SDS011;11853;48.080;11.960;2023-06-22T09:28:06;15.95;;;7.57;;
23362;SDS011;11853;48.080;11.960;2023-06-22T09:30:31;16.17;;;7.20;;
23362;SDS011;11853;48.080;11.960;2023-06-22T09:32:57;16.15;;;7.50;;
23362;SDS011;11853;48.080;11.960;2023-06-22T09:35:22;15.75;;;7.70;;
23362;SDS011;11853;48.080;11.960;2023-06-22T09:37:48;14.13;;;7.95;;
23362;SDS011;11853;48.080;11.960;2023-06-22T09:40:14;12.18;;;7.85;;
23362;SDS011;11853;48.080;11.960;2023-06-22T09:42:41;12.55;;;7.47;;
23362;SDS011;11853;48.080;11.960;2023-06-22T09:45:08;19.23;;;8.38;;
23362;SDS011;11853;48.080;11.960;2023-06-22T09:47:34;20.20;;;8.23;;
23362;SDS011;11853;48.080;11.960;2023-06-22T09:49:59;14.15;;;8.00;;
23362;SDS011;11853;48.080;11.960;2023-06-22T09:52:25;14.25;;;7.43;;
23362;SDS011;11853;48.080;11.960;2023-06-22T09:54:51;15.73;;;7.80;;
23362;SDS011;11853;48.080;11.960;2023-06-22T09:57:16;15.57;;;7.85;;
23362;SDS011;11853;48.080;11.960;2023-06-22T09:59:42;19.30;;;8.65;;
23362;SDS011;11853;48.080;11.960;2023-06-22T10:02:08;15.32;;;7.70;;
23362;SDS011;11853;48.080;11.960;2023-06-22T10:04:34;13.93;;;7.68;;
23362;SDS011;11853;48.080;11.960;2023-06-22T10:07:00;17.50;;;8.10;;
23362;SDS011;11853;48.080;11.960;2023-06-22T10:09:27;15.05;;;7.75;;
23362;SDS011;11853;48.080;11.960;2023-06-22T10:11:53;14.02;;;7.90;;
23362;SDS011;11853;48.080;11.960;2023-06-22T10:16:52;13.65;;;7.75;;
23362;SDS011;11853;48.080;11.960;2023-06-22T10:19:18;12.35;;;8.05;;
23362;SDS011;11853;48.080;11.960;2023-06-22T10:21:43;14.77;;;7.97;;
23362;SDS011;11853;48.080;11.960;2023-06-22T10:24:09;12.10;;;7.60;;
23362;SDS011;11853;48.080;11.960;2023-06-22T10:26:35;14.40;;;7.60;;
23362;SDS011;11853;48.080;11.960;2023-06-22T10:29:01;13.93;;;7.78;;
23362;SDS011;11853;48.080;11.960;2023-06-22T10:31:28;13.90;;;7.82;;
23362;SDS011;11853;48.080;11.960;2023-06-22T10:33:54;16.95;;;8.10;;
23362;SDS011;11853;48.080;11.960;2023-06-22T10:36:20;14.45;;;7.88;;
23362;SDS011;11853;48.080;11.960;2023-06-22T10:38:46;11.80;;;6.93;;
23362;SDS011;11853;48.080;11.960;2023-06-22T10:41:13;11.90;;;6.63;;
23362;SDS011;11853;48.080;11.960;2023-06-22T10:43:38;15.57;;;7.88;;
23362;SDS011;11853;48.080;11.960;2023-06-22T10:46:04;14.93;;;7.47;;
23362;SDS011;11853;48.080;11.960;2023-06-22T10:48:29;15.82;;;7.95;;
23362;SDS011;11853;48.080;11.960;2023-06-22T10:50:55;15.75;;;8.10;;
23362;SDS011;11853;48.080;11.960;2023-06-22T10:53:21;15.85;;;7.32;;
23362;SDS011;11853;48.080;11.960;2023-06-22T10:55:47;14.95;;;7.45;;
23362;SDS011;11853;48.080;11.960;2023-06-22T10:58:12;15.45;;;7.65;;
23362;SDS011;11853;48.080;11.960;2023-06-22T11:00:38;14.07;;;7.55;;
23362;SDS011;11853;48.080;11.960;2023-06-22T11:03:04;18.08;;;7.38;;
23362;SDS011;11853;48.080;11.960;2023-06-22T11:05:29;13.25;;;7.68;;
23362;SDS011;11853;48.080;11.960;2023-06-22T11:07:55;13.43;;;7.30;;
23362;SDS011;11853;48.080;11.960;2023-06-22T11:10:20;18.70;;;7.10;;
23362;SDS011;11853;48.080;11.960;2023-06-22T11:12:46;16.83;;;7.70;;
23362;SDS011;11853;48.080;11.960;2023-06-22T11:15:12;12.57;;;6.82;;
23362;SDS011;11853;48.080;11.960;2023-06-22T11:21:18;13.98;;;7.70;;
23362;SDS011;11853;48.080;11.960;2023-06-22T11:24:03;17.92;;;7.45;;
23362;SDS011;11853;48.080;11.960;2023-06-22T11:26:30;18.52;;;7.88;;
23362;SDS011;11853;48.080;11.960;2023-06-22T11:29:12;13.52;;;7.13;;
23362;SDS011;11853;48.080;11.960;2023-06-22T11:38:13;14.65;;;7.78;;
23362;SDS011;11853;48.080;11.960;2023-06-22T11:40:38;19.02;;;7.75;;
23362;SDS011;11853;48.080;11.960;2023-06-22T11:43:04;18.23;;;7.80;;
23362;SDS011;11853;48.080;11.960;2023-06-22T11:45:30;12.32;;;7.00;;
23362;SDS011;11853;48.080;11.960;2023-06-22T11:47:55;13.40;;;7.45;;
23362;SDS011;11853;48.080;11.960;2023-06-22T11:50:21;16.45;;;7.78;;
23362;SDS011;11853;48.080;11.960;2023-06-22T11:52:47;14.77;;;6.88;;
23362;SDS011;11853;48.080;11.960;2023-06-22T11:55:13;13.98;;;6.70;;
23362;SDS011;11853;48.080;11.960;2023-06-22T11:57:38;14.93;;;7.55;;
23362;SDS011;11853;48.080;11.960;2023-06-22T12:00:19;13.10;;;6.63;;
23362;SDS011;11853;48.080;11.960;2023-06-22T12:02:45;13.40;;;7.20;;
23362;SDS011;11853;48.080;11.960;2023-06-22T12:05:11;15.55;;;7.90;;
23362;SDS011;11853;48.080;11.960;2023-06-22T12:07:37;14.70;;;7.18;;
23362;SDS011;11853;48.080;11.960;2023-06-22T12:10:03;15.65;;;7.18;;
23362;SDS011;11853;48.080;11.960;2023-06-22T12:12:29;18.15;;;7.10;;
23362;SDS011;11853;48.080;11.960;2023-06-22T12:14:55;14.52;;;6.60;;
23362;SDS011;11853;48.080;11.960;2023-06-22T12:17:20;14.95;;;7.22;;
23362;SDS011;11853;48.080;11.960;2023-06-22T12:19:46;16.90;;;7.45;;
23362;SDS011;11853;48.080;11.960;2023-06-22T12:22:12;14.85;;;7.10;;
23362;SDS011;11853;48.080;11.960;2023-06-22T12:24:37;16.13;;;7.15;;
23362;SDS011;11853;48.080;11.960;2023-06-22T12:27:03;12.02;;;7.53;;
23362;SDS011;11853;48.080;11.960;2023-06-22T12:29:29;13.38;;;7.00;;
23362;SDS011;11853;48.080;11.960;2023-06-22T12:31:55;15.43;;;7.47;;
23362;SDS011;11853;48.080;11.960;2023-06-22T12:34:20;18.25;;;7.32;;
23362;SDS011;11853;48.080;11.960;2023-06-22T12:36:46;15.73;;;7.38;;
23362;SDS011;11853;48.080;11.960;2023-06-22T12:39:14;16.55;;;7.93;;
23362;SDS011;11853;48.080;11.960;2023-06-22T12:41:40;14.35;;;6.97;;
23362;SDS011;11853;48.080;11.960;2023-06-22T12:44:06;12.50;;;6.88;;
23362;SDS011;11853;48.080;11.960;2023-06-22T12:46:31;15.75;;;6.95;;
23362;SDS011;11853;48.080;11.960;2023-06-22T12:49:02;9.70;;;6.63;;
23362;SDS011;11853;48.080;11.960;2023-06-22T12:51:29;13.85;;;7.50;;
23362;SDS011;11853;48.080;11.960;2023-06-22T12:53:55;13.60;;;7.32;;
23362;SDS011;11853;48.080;11.960;2023-06-22T12:56:21;16.88;;;7.20;;
23362;SDS011;11853;48.080;11.960;2023-06-22T12:58:47;11.68;;;6.82;;
23362;SDS011;11853;48.080;11.960;2023-06-22T13:01:13;10.38;;;6.63;;
23362;SDS011;11853;48.080;11.960;2023-06-22T13:03:39;14.88;;;7.03;;
23362;SDS011;11853;48.080;11.960;2023-06-22T13:06:05;13.55;;;6.80;;
23362;SDS011;11853;48.080;11.960;2023-06-22T13:08:31;13.45;;;7.07;;
23362;SDS011;11853;48.080;11.960;2023-06-22T13:10:57;12.68;;;7.05;;
23362;SDS011;11853;48.080;11.960;2023-06-22T13:13:25;15.55;;;6.45;;
23362;SDS011;11853;48.080;11.960;2023-06-22T13:15:54;12.40;;;6.18;;
23362;SDS011;11853;48.080;11.960;2023-06-22T13:18:20;11.90;;;7.03;;
23362;SDS011;11853;48.080;11.960;2023-06-22T13:20:46;13.40;;;6.95;;
23362;SDS011;11853;48.080;11.960;2023-06-22T13:23:11;10.60;;;6.47;;
23362;SDS011;11853;48.080;11.960;2023-06-22T13:25:37;13.32;;;6.68;;
23362;SDS011;11853;48.080;11.960;2023-06-22T13:28:03;13.07;;;6.22;;
23362;SDS011;11853;48.080;11.960;2023-06-22T13:30:29;14.10;;;6.40;;
23362;SDS011;11853;48.080;11.960;2023-06-22T13:32:56;9.80;;;6.20;;
23362;SDS011;11853;48.080;11.960;2023-06-22T13:35:22;11.93;;;6.35;;
23362;SDS011;11853;48.080;11.960;2023-06-22T13:37:48;11.75;;;6.30;;
23362;SDS011;11853;48.080;11.960;2023-06-22T13:40:14;15.20;;;6.85;;
23362;SDS011;11853;48.080;11.960;2023-06-22T13:42:39;11.07;;;5.55;;
23362;SDS011;11853;48.080;11.960;2023-06-22T13:45:06;8.77;;;5.38;;
23362;SDS011;11853;48.080;11.960;2023-06-22T13:47:32;14.75;;;6.47;;
23362;SDS011;11853;48.080;11.960;2023-06-22T13:49:58;12.75;;;6.95;;
23362;SDS011;11853;48.080;11.960;2023-06-22T13:52:24;14.18;;;6.32;;
23362;SDS011;11853;48.080;11.960;2023-06-22T13:54:50;13.65;;;6.68;;
23362;SDS011;11853;48.080;11.960;2023-06-22T13:57:16;15.48;;;5.90;;
23362;SDS011;11853;48.080;11.960;2023-06-22T13:59:41;10.90;;;6.00;;
23362;SDS011;11853;48.080;11.960;2023-06-22T14:02:07;14.90;;;6.70;;
23362;SDS011;11853;48.080;11.960;2023-06-22T14:04:33;13.57;;;6.43;;
23362;SDS011;11853;48.080;11.960;2023-06-22T14:06:59;13.23;;;6.60;;
23362;SDS011;11853;48.080;11.960;2023-06-22T14:09:24;13.60;;;6.57;;
23362;SDS011;11853;48.080;11.960;2023-06-22T14:11:50;15.07;;;6.60;;
23362;SDS011;11853;48.080;11.960;2023-06-22T14:14:16;16.38;;;6.15;;
23362;SDS011;11853;48.080;11.960;2023-06-22T14:16:41;15.15;;;6.40;;
23362;SDS011;11853;48.080;11.960;2023-06-22T14:19:07;14.40;;;6.78;;
23362;SDS011;11853;48.080;11.960;2023-06-22T14:21:33;9.48;;;6.07;;
23362;SDS011;11853;48.080;11.960;2023-06-22T14:23:59;10.15;;;6.13;;
23362;SDS011;11853;48.080;11.960;2023-06-22T14:26:24;14.60;;;6.63;;
23362;SDS011;11853;48.080;11.960;2023-06-22T14:28:50;13.85;;;6.65;;
23362;SDS011;11853;48.080;11.960;2023-06-22T14:31:19;12.18;;;6.45;;
23362;SDS011;11853;48.080;11.960;2023-06-22T14:33:48;11.25;;;6.80;;
23362;SDS011;11853;48.080;11.960;2023-06-22T14:36:20;17.60;;;7.05;;
23362;SDS011;11853;48.080;11.960;2023-06-22T14:38:46;14.75;;;6.57;;
23362;SDS011;11853;48.080;11.960;2023-06-22T14:41:17;13.10;;;6.13;;
23362;SDS011;11853;48.080;11.960;2023-06-22T14:43:49;12.55;;;6.65;;
23362;SDS011;11853;48.080;11.960;2023-06-22T14:46:16;14.57;;;6.95;;
23362;SDS011;11853;48.080;11.960;2023-06-22T14:49:11;11.38;;;6.10;;